^^
Datos históricos de la estación: Murcia-Puente Tocinos
Diario Informe para Septiembre 23, 2021 Unidades:  Ambas    Ingés   Métrico
Diario Semanal Mensual Anual
  Máxima: Mínima: Promedio:
Temperatura: 83.1 °F /  28.4 °C 68.7 °F /  20.4 °C 75.6 °F /  24.2 °C
Punto de rocio: 67.6 °F /  19.8 °C 60.3 °F /  15.7 °C 62.8 °F /  17.1 °C
Humedad: 78% 48.3% 66%
Velocidad viento: 15.2mph /  24.5km/h - 5.8mph /  9.3km/h
Racha viento: 26.8mph /  43.1km/h - -
Viento- - SSE
Presión: 30 in /  1015.8 hPa 29.9 in /  1012.1 hPa -
Precipitación: 0 in /  0.0 mm    
 
 
Tabla de datos para Septiembre 23, 2021
Hora Temperatura Punto de rocio Presión Viento Velocidad viento Racha viento Humedad Intensidad lluvia(por hora) Nubes
00:04 72.3 °F /  22.4 °C 60.6 °F /  15.9 °C 30in /  1015.6hPa Oeste 2.9mph /  4.7km/h 6.9mph /  11.1km/h 67% 0in /  0.0mm
00:09 72.3 °F /  22.4 °C 60.6 °F /  15.9 °C 30in /  1015.7hPa OSO 2.9mph /  4.7km/h 6.2mph /  10km/h 67% 0in /  0.0mm
00:14 72.5 °F /  22.5 °C 61 °F /  16.1 °C 30in /  1015.7hPa OSO 2.9mph /  4.7km/h 5.8mph /  9.3km/h 67% 0in /  0.0mm
00:19 72.7 °F /  22.6 °C 61.2 °F /  16.2 °C 30in /  1015.7hPa SO 2.6mph /  4.2km/h 4.7mph /  7.6km/h 67% 0in /  0.0mm
00:24 72.7 °F /  22.6 °C 61.2 °F /  16.2 °C 30in /  1015.8hPa Sur 2mph /  3.2km/h 5.9mph /  9.5km/h 66.9% 0in /  0.0mm
00:29 72.7 °F /  22.6 °C 61.2 °F /  16.2 °C 30in /  1015.8hPa SE 2.5mph /  4km/h 5.8mph /  9.3km/h 67.3% 0in /  0.0mm
00:34 72.7 °F /  22.6 °C 61.5 °F /  16.4 °C 30in /  1015.8hPa SSE 3.6mph /  5.8km/h 4.6mph /  7.4km/h 68% 0in /  0.0mm
00:39 72.5 °F /  22.5 °C 61.5 °F /  16.4 °C 30in /  1015.8hPa SSE 3.4mph /  5.5km/h 4.7mph /  7.6km/h 68.6% 0in /  0.0mm
00:44 72.3 °F /  22.4 °C 61.7 °F /  16.5 °C 30in /  1015.7hPa Sur 2.9mph /  4.7km/h 4.6mph /  7.4km/h 69% 0in /  0.0mm
00:49 72.3 °F /  22.4 °C 61.5 °F /  16.4 °C 30in /  1015.7hPa SSE 2.9mph /  4.7km/h 4.6mph /  7.4km/h 69% 0in /  0.0mm
00:54 72.3 °F /  22.4 °C 61.5 °F /  16.4 °C 30in /  1015.7hPa SSE 2.9mph /  4.7km/h 4.6mph /  7.4km/h 69% 0in /  0.0mm
00:59 72.3 °F /  22.4 °C 61.5 °F /  16.4 °C 30in /  1015.6hPa SSE 2.9mph /  4.7km/h 4.6mph /  7.4km/h 68.8% 0in /  0.0mm
01:04 72.3 °F /  22.4 °C 61.5 °F /  16.4 °C 30in /  1015.6hPa SSE 2.9mph /  4.7km/h 4.6mph /  7.4km/h 69% 0in /  0.0mm
01:09 72.3 °F /  22.4 °C 61.5 °F /  16.4 °C 30in /  1015.6hPa SSE 2.7mph /  4.4km/h 4.6mph /  7.4km/h 69% 0in /  0.0mm
01:14 72.3 °F /  22.4 °C 61.5 °F /  16.4 °C 30in /  1015.5hPa SSE 2.4mph /  3.9km/h 3.5mph /  5.6km/h 69% 0in /  0.0mm
01:19 72.1 °F /  22.3 °C 61.5 °F /  16.4 °C 30in /  1015.5hPa OSO 2.3mph /  3.7km/h 4.6mph /  7.4km/h 69% 0in /  0.0mm
01:24 72.1 °F /  22.3 °C 61.3 °F /  16.3 °C 30in /  1015.5hPa OSO 2mph /  3.2km/h 5.8mph /  9.3km/h 68.8% 0in /  0.0mm
01:29 72.1 °F /  22.3 °C 61 °F /  16.1 °C 30in /  1015.5hPa Oeste 2.3mph /  3.7km/h 4.7mph /  7.6km/h 68% 0in /  0.0mm
01:34 72 °F /  22.2 °C 60.8 °F /  16 °C 30in /  1015.5hPa OSO 3.1mph /  5km/h 5.8mph /  9.3km/h 68% 0in /  0.0mm
01:39 72 °F /  22.2 °C 60.6 °F /  15.9 °C 30in /  1015.5hPa Oeste 3.3mph /  5.3km/h 4.7mph /  7.6km/h 68% 0in /  0.0mm
01:44 71.8 °F /  22.1 °C 61 °F /  16.1 °C 30in /  1015.3hPa OSO 3.6mph /  5.8km/h 4.6mph /  7.4km/h 68.9% 0in /  0.0mm
01:49 71.8 °F /  22.1 °C 61.2 °F /  16.2 °C 30in /  1015.3hPa OSO 3.2mph /  5.2km/h 4.6mph /  7.4km/h 69% 0in /  0.0mm
01:54 71.8 °F /  22.1 °C 61 °F /  16.1 °C 30in /  1015.3hPa SO 2.4mph /  3.9km/h 7.4mph /  11.9km/h 69% 0in /  0.0mm
01:59 71.6 °F /  22 °C 61.2 °F /  16.2 °C 30in /  1015.3hPa SO 3mph /  4.8km/h 8.1mph /  13km/h 69.6% 0in /  0.0mm
02:04 71.6 °F /  22 °C 61.3 °F /  16.3 °C 30in /  1015.3hPa SO 4mph /  6.4km/h 5.2mph /  8.4km/h 70% 0in /  0.0mm
02:09 71.4 °F /  21.9 °C 61.2 °F /  16.2 °C 30in /  1015.3hPa SSO 3.9mph /  6.2km/h 7.4mph /  11.9km/h 70% 0in /  0.0mm
02:14 71.4 °F /  21.9 °C 61.2 °F /  16.2 °C 30in /  1015.3hPa SSO 3.6mph /  5.8km/h 7.4mph /  11.9km/h 70% 0in /  0.0mm
02:19 71.4 °F /  21.9 °C 61.2 °F /  16.2 °C 30in /  1015.3hPa SSO 3.8mph /  6.1km/h 8.1mph /  13km/h 70% 0in /  0.0mm
02:24 71.4 °F /  21.9 °C 61.2 °F /  16.2 °C 30in /  1015.3hPa SSO 4.3mph /  6.9km/h 7.4mph /  11.9km/h 70% 0in /  0.0mm
02:29 71.2 °F /  21.8 °C 61 °F /  16.1 °C 30in /  1015.1hPa SSO 4.4mph /  7.1km/h 7.4mph /  11.9km/h 70% 0in /  0.0mm
02:34 71.1 °F /  21.7 °C 61.3 °F /  16.3 °C 30in /  1015.1hPa SSO 4.7mph /  7.6km/h 8.1mph /  13km/h 71% 0in /  0.0mm
02:39 71.1 °F /  21.7 °C 61.2 °F /  16.2 °C 30in /  1015.1hPa SSO 4.8mph /  7.8km/h 9.7mph /  15.6km/h 71% 0in /  0.0mm
02:44 70.9 °F /  21.6 °C 61.2 °F /  16.2 °C 30in /  1015.0hPa SSO 5.2mph /  8.4km/h 9.2mph /  14.8km/h 71.5% 0in /  0.0mm
02:49 70.9 °F /  21.6 °C 61.3 °F /  16.3 °C 30in /  1015.0hPa Sur 5.3mph /  8.5km/h 8.1mph /  13km/h 72% 0in /  0.0mm
02:54 70.9 °F /  21.6 °C 61.3 °F /  16.3 °C 30in /  1015.0hPa Sur 5.4mph /  8.7km/h 8.1mph /  13km/h 72% 0in /  0.0mm
02:59 70.7 °F /  21.5 °C 61.5 °F /  16.4 °C 30in /  1015.0hPa Sur 5.3mph /  8.6km/h 6.9mph /  11.1km/h 72.9% 0in /  0.0mm
03:04 70.5 °F /  21.4 °C 61.3 °F /  16.3 °C 30in /  1015.0hPa Sur 5.2mph /  8.4km/h 8.1mph /  13km/h 73% 0in /  0.0mm
03:09 70.5 °F /  21.4 °C 61.3 °F /  16.3 °C 30in /  1015.1hPa Sur 5mph /  8.1km/h 8.1mph /  13km/h 73% 0in /  0.0mm
03:14 70.3 °F /  21.3 °C 61.3 °F /  16.3 °C 30in /  1015.1hPa SSO 4.7mph /  7.6km/h 8.7mph /  14km/h 73% 0in /  0.0mm
03:19 70.3 °F /  21.3 °C 61.3 °F /  16.3 °C 30in /  1015.1hPa SSO 4.8mph /  7.8km/h 9.2mph /  14.8km/h 73% 0in /  0.0mm
03:24 70.3 °F /  21.3 °C 61.3 °F /  16.3 °C 30in /  1015.1hPa SSO 5.2mph /  8.4km/h 6.9mph /  11.1km/h 73% 0in /  0.0mm
03:29 70.3 °F /  21.3 °C 61.3 °F /  16.3 °C 30in /  1015.1hPa SSO 5.2mph /  8.4km/h 8.1mph /  13km/h 73% 0in /  0.0mm
03:34 70.5 °F /  21.4 °C 61.3 °F /  16.3 °C 30in /  1015.1hPa SSO 5.2mph /  8.4km/h 6.9mph /  11.1km/h 73% 0in /  0.0mm
03:39 70.5 °F /  21.4 °C 61.2 °F /  16.2 °C 30in /  1015.1hPa SSO 4.9mph /  7.9km/h 5.9mph /  9.5km/h 72.3% 0in /  0.0mm
03:44 70.7 °F /  21.5 °C 61.2 °F /  16.2 °C 30in /  1015.0hPa SSO 4.3mph /  6.9km/h 5.9mph /  9.5km/h 72% 0in /  0.0mm
03:49 70.9 °F /  21.6 °C 61.3 °F /  16.3 °C 30in /  1015.0hPa SSO 4.1mph /  6.6km/h 6.2mph /  10km/h 72% 0in /  0.0mm
03:54 70.9 °F /  21.6 °C 61.3 °F /  16.3 °C 30in /  1015.0hPa SSO 3.6mph /  5.8km/h 8.1mph /  13km/h 72% 0in /  0.0mm
03:59 70.9 °F /  21.6 °C 61.3 °F /  16.3 °C 30in /  1015.0hPa SSO 4.2mph /  6.7km/h 9.2mph /  14.8km/h 72% 0in /  0.0mm
04:04 70.7 °F /  21.5 °C 61.2 °F /  16.2 °C 30in /  1015.0hPa SO 5.2mph /  8.4km/h 8.1mph /  13km/h 72% 0in /  0.0mm
04:09 70.7 °F /  21.5 °C 61.2 °F /  16.2 °C 30in /  1015.0hPa SO 4.9mph /  7.9km/h 6.9mph /  11.1km/h 72% 0in /  0.0mm
04:14 70.7 °F /  21.5 °C 61.2 °F /  16.2 °C 30in /  1014.9hPa SO 4.3mph /  6.9km/h 8.1mph /  13km/h 72% 0in /  0.0mm
04:19 70.7 °F /  21.5 °C 61.2 °F /  16.2 °C 30in /  1014.9hPa SO 4.4mph /  7.1km/h 6.9mph /  11.1km/h 72% 0in /  0.0mm
04:24 70.5 °F /  21.4 °C 61.2 °F /  16.2 °C 30in /  1014.9hPa OSO 4.7mph /  7.6km/h 6.9mph /  11.1km/h 72% 0in /  0.0mm
04:29 70.5 °F /  21.4 °C 61.2 °F /  16.2 °C 30in /  1014.6hPa SO 4.3mph /  7km/h 6.2mph /  10km/h 72.1% 0in /  0.0mm
04:34 70.5 °F /  21.4 °C 61.3 °F /  16.3 °C 30in /  1014.6hPa SO 3.6mph /  5.8km/h 6.2mph /  10km/h 73% 0in /  0.0mm
04:39 70.3 °F /  21.3 °C 61.3 °F /  16.3 °C 30in /  1014.6hPa SO 3.8mph /  6.1km/h 6.9mph /  11.1km/h 73% 0in /  0.0mm
04:44 70.3 °F /  21.3 °C 61.3 °F /  16.3 °C 30in /  1014.5hPa SO 4.3mph /  6.9km/h 6.2mph /  10km/h 73% 0in /  0.0mm
04:49 70.3 °F /  21.3 °C 61.3 °F /  16.3 °C 30in /  1014.5hPa SO 4.2mph /  6.8km/h 8.1mph /  13km/h 73% 0in /  0.0mm
04:54 70.3 °F /  21.3 °C 61.5 °F /  16.4 °C 30in /  1014.5hPa SO 4mph /  6.4km/h 8.1mph /  13km/h 73.6% 0in /  0.0mm
04:59 70.2 °F /  21.2 °C 61.5 °F /  16.4 °C 30in /  1014.3hPa SO 4.4mph /  7.1km/h 8.1mph /  13km/h 74% 0in /  0.0mm
05:04 70.2 °F /  21.2 °C 61.5 °F /  16.4 °C 30in /  1014.3hPa SO 5.2mph /  8.4km/h 8.1mph /  13km/h 74% 0in /  0.0mm
05:09 70.2 °F /  21.2 °C 61.5 °F /  16.4 °C 30in /  1014.3hPa SO 5.2mph /  8.4km/h 8.1mph /  13km/h 74% 0in /  0.0mm
05:14 70 °F /  21.1 °C 61.7 °F /  16.5 °C 30in /  1014.2hPa SSO 5.2mph /  8.4km/h 9.2mph /  14.8km/h 74.8% 0in /  0.0mm
05:19 69.8 °F /  21 °C 61.5 °F /  16.4 °C 30in /  1014.2hPa SSO 5.2mph /  8.4km/h 9.2mph /  14.8km/h 75% 0in /  0.0mm
05:24 69.8 °F /  21 °C 61.3 °F /  16.3 °C 30in /  1014.2hPa SSO 5.2mph /  8.4km/h 6.9mph /  11.1km/h 75% 0in /  0.0mm
05:29 69.6 °F /  20.9 °C 61.3 °F /  16.3 °C 30in /  1014.2hPa SSO 4.9mph /  7.9km/h 8.7mph /  14km/h 75% 0in /  0.0mm
05:34 69.6 °F /  20.9 °C 61.5 °F /  16.4 °C 30in /  1014.2hPa SSO 4.3mph /  6.9km/h 9.2mph /  14.8km/h 75.9% 0in /  0.0mm
05:39 69.4 °F /  20.8 °C 61.5 °F /  16.4 °C 30in /  1014.2hPa SSO 4.7mph /  7.6km/h 9.7mph /  15.6km/h 76% 0in /  0.0mm
05:44 69.4 °F /  20.8 °C 61.5 °F /  16.4 °C 29.9in /  1014.1hPa SSO 5.9mph /  9.5km/h 7.4mph /  11.9km/h 76% 0in /  0.0mm
05:49 69.3 °F /  20.7 °C 61.3 °F /  16.3 °C 29.9in /  1014.1hPa SSO 5.7mph /  9.2km/h 8.1mph /  13km/h 76% 0in /  0.0mm
05:54 69.3 °F /  20.7 °C 61.5 °F /  16.4 °C 29.9in /  1014.1hPa SSO 5.4mph /  8.7km/h 6.9mph /  11.1km/h 76.5% 0in /  0.0mm
05:59 69.3 °F /  20.7 °C 61.7 °F /  16.5 °C 29.9in /  1013.9hPa SSO 4.8mph /  7.7km/h 4mph /  6.4km/h 77% 0in /  0.0mm
06:04 69.3 °F /  20.7 °C 61.7 °F /  16.5 °C 29.9in /  1013.9hPa OSO 3.6mph /  5.8km/h 5.8mph /  9.3km/h 77% 0in /  0.0mm
06:09 69.1 °F /  20.6 °C 61.5 °F /  16.4 °C 29.9in /  1013.9hPa SO 3.5mph /  5.6km/h 5.9mph /  9.5km/h 77% 0in /  0.0mm
06:14 69.1 °F /  20.6 °C 61.5 °F /  16.4 °C 29.9in /  1013.8hPa SO 3.1mph /  5km/h 5.8mph /  9.3km/h 77% 0in /  0.0mm
06:19 69.1 °F /  20.6 °C 61.5 °F /  16.4 °C 29.9in /  1013.8hPa SO 3.1mph /  5km/h 4.7mph /  7.6km/h 77% 0in /  0.0mm
06:24 69.1 °F /  20.6 °C 61.5 °F /  16.4 °C 29.9in /  1014.0hPa SO 3.1mph /  5km/h 5.9mph /  9.5km/h 77% 0in /  0.0mm
06:29 69.1 °F /  20.6 °C 61.5 °F /  16.4 °C 29.9in /  1014.0hPa SO 3.2mph /  5.2km/h 5.4mph /  8.7km/h 77% 0in /  0.0mm
06:34 69.1 °F /  20.6 °C 61.5 °F /  16.4 °C 29.9in /  1014.0hPa SO 3.6mph /  5.8km/h 5.8mph /  9.3km/h 77% 0in /  0.0mm
06:39 68.9 °F /  20.5 °C 61.3 °F /  16.3 °C 29.9in /  1014.1hPa OSO 3.4mph /  5.4km/h 5.4mph /  8.7km/h 77% 0in /  0.0mm
06:44 68.9 °F /  20.5 °C 61.3 °F /  16.3 °C 29.9in /  1014.1hPa OSO 2.9mph /  4.7km/h 6.2mph /  10km/h 77% 0in /  0.0mm
06:49 68.7 °F /  20.4 °C 61.2 °F /  16.2 °C 29.9in /  1014.1hPa OSO 3.1mph /  5km/h 5.8mph /  9.3km/h 77% 0in /  0.0mm
06:54 68.7 °F /  20.4 °C 61.5 °F /  16.4 °C 29.9in /  1014.1hPa Oeste 3.6mph /  5.8km/h 3.6mph /  5.8km/h 77.8% 0in /  0.0mm
06:59 68.7 °F /  20.4 °C 61.7 °F /  16.5 °C 29.9in /  1014.1hPa SO 3.2mph /  5.2km/h 5.9mph /  9.5km/h 78% 0in /  0.0mm
07:04 68.9 °F /  20.5 °C 61.9 °F /  16.6 °C 29.9in /  1014.1hPa SO 2.4mph /  3.9km/h 6.9mph /  11.1km/h 78% 0in /  0.0mm
07:09 68.9 °F /  20.5 °C 61.7 °F /  16.5 °C 29.9in /  1014.1hPa SSO 3mph /  4.9km/h 6.9mph /  11.1km/h 77.6% 0in /  0.0mm
07:14 68.9 °F /  20.5 °C 61.5 °F /  16.4 °C 29.9in /  1014.1hPa SO 4.7mph /  7.6km/h 5.9mph /  9.5km/h 77.2% 0in /  0.0mm
07:19 69.1 °F /  20.6 °C 61.7 °F /  16.5 °C 29.9in /  1014.1hPa SO 4.3mph /  7km/h 5.8mph /  9.3km/h 77.1% 0in /  0.0mm
07:24 69.1 °F /  20.6 °C 61.5 °F /  16.4 °C 30in /  1014.2hPa SO 3.6mph /  5.8km/h 4.7mph /  7.6km/h 77% 0in /  0.0mm
07:29 69.1 °F /  20.6 °C 61.5 °F /  16.4 °C 30in /  1014.2hPa Sur 3.5mph /  5.6km/h 5.2mph /  8.4km/h 77% 0in /  0.0mm
07:34 69.1 °F /  20.6 °C 61.5 °F /  16.4 °C 30in /  1014.2hPa SSO 3.1mph /  5km/h 6.9mph /  11.1km/h 77% 0in /  0.0mm
07:39 69.3 °F /  20.7 °C 61.7 °F /  16.5 °C 30in /  1014.3hPa Sur 3.4mph /  5.4km/h 6.2mph /  10km/h 77% 0in /  0.0mm
07:44 69.3 °F /  20.7 °C 61.7 °F /  16.5 °C 30in /  1014.3hPa SSO 4mph /  6.4km/h 6.9mph /  11.1km/h 77% 0in /  0.0mm
07:49 69.3 °F /  20.7 °C 61.7 °F /  16.5 °C 30in /  1014.3hPa SSO 4.3mph /  7km/h 8.5mph /  13.7km/h 77% 0in /  0.0mm
07:54 69.3 °F /  20.7 °C 61.7 °F /  16.5 °C 30in /  1014.5hPa Sur 5.2mph /  8.4km/h 7.4mph /  11.9km/h 77% 0in /  0.0mm
07:59 69.3 °F /  20.7 °C 61.7 °F /  16.5 °C 30in /  1014.5hPa Sur 5.2mph /  8.4km/h 8.1mph /  13km/h 77% 0in /  0.0mm
08:04 69.3 °F /  20.7 °C 61.7 °F /  16.5 °C 30in /  1014.5hPa Sur 5.2mph /  8.4km/h 8.1mph /  13km/h 77% 0in /  0.0mm
08:09 69.3 °F /  20.7 °C 61.7 °F /  16.5 °C 30in /  1014.5hPa SSO 5mph /  8.1km/h 8.1mph /  13km/h 77% 0in /  0.0mm
08:14 69.3 °F /  20.7 °C 61.7 °F /  16.5 °C 30in /  1014.5hPa SSO 4.7mph /  7.6km/h 8.7mph /  14km/h 77% 0in /  0.0mm
08:19 69.3 °F /  20.7 °C 61.7 °F /  16.5 °C 30in /  1014.5hPa SO 4.7mph /  7.6km/h 9.2mph /  14.8km/h 77% 0in /  0.0mm
08:24 69.3 °F /  20.7 °C 61.7 °F /  16.5 °C 30in /  1014.5hPa SO 4.7mph /  7.6km/h 8.1mph /  13km/h 77% 0in /  0.0mm
08:29 69.3 °F /  20.7 °C 61.7 °F /  16.5 °C 30in /  1014.5hPa SSO 4.8mph /  7.8km/h 10.4mph /  16.7km/h 77% 0in /  0.0mm
08:34 69.3 °F /  20.7 °C 61.7 °F /  16.5 °C 30in /  1014.5hPa SSO 5.2mph /  8.4km/h 10.7mph /  17.2km/h 77% 0in /  0.0mm
08:39 69.3 °F /  20.7 °C 61.7 °F /  16.5 °C 30in /  1014.5hPa SSO 5.4mph /  8.7km/h 9.2mph /  14.8km/h 77% 0in /  0.0mm
08:44 69.3 °F /  20.7 °C 61.7 °F /  16.5 °C 30in /  1014.4hPa SO 5.9mph /  9.5km/h 9.2mph /  14.8km/h 77% 0in /  0.0mm
08:49 69.4 °F /  20.8 °C 61.9 °F /  16.6 °C 30in /  1014.4hPa SSO 5.5mph /  8.9km/h 8.1mph /  13km/h 77% 0in /  0.0mm
08:54 69.4 °F /  20.8 °C 61.9 °F /  16.6 °C 30in /  1014.4hPa SSO 4.7mph /  7.6km/h 10.2mph /  16.4km/h 77% 0in /  0.0mm
08:59 69.4 °F /  20.8 °C 61.9 °F /  16.6 °C 30in /  1014.4hPa SSO 5mph /  8km/h 10.4mph /  16.7km/h 77% 0in /  0.0mm
09:04 69.6 °F /  20.9 °C 61.9 °F /  16.6 °C 30in /  1014.4hPa SSO 5.4mph /  8.7km/h 8.1mph /  13km/h 76.7% 0in /  0.0mm
09:09 69.8 °F /  21 °C 61.9 °F /  16.6 °C 30in /  1014.4hPa SO 5.1mph /  8.2km/h 8.7mph /  14km/h 76% 0in /  0.0mm
09:14 70 °F /  21.1 °C 62.1 °F /  16.7 °C 30in /  1014.4hPa SSO 4.3mph /  6.9km/h 9.2mph /  14.8km/h 76% 0in /  0.0mm
09:19 70 °F /  21.1 °C 62.1 °F /  16.7 °C 30in /  1014.4hPa SSO 4.7mph /  7.5km/h 8.5mph /  13.7km/h 75.9% 0in /  0.0mm
09:24 70.2 °F /  21.2 °C 62.1 °F /  16.7 °C 30in /  1014.5hPa OSO 5.4mph /  8.7km/h 7.4mph /  11.9km/h 75.4% 0in /  0.0mm
09:29 70.3 °F /  21.3 °C 61.9 °F /  16.6 °C 30in /  1014.5hPa SO 5mph /  8.1km/h 9.2mph /  14.8km/h 75% 0in /  0.0mm
09:34 70.5 °F /  21.4 °C 62.1 °F /  16.7 °C 30in /  1014.5hPa SO 4.3mph /  6.9km/h 9.2mph /  14.8km/h 74.8% 0in /  0.0mm
09:39 70.7 °F /  21.5 °C 61.9 °F /  16.6 °C 30in /  1014.5hPa SO 4.4mph /  7.1km/h 8.1mph /  13km/h 74% 0in /  0.0mm
09:44 70.9 °F /  21.6 °C 62.1 °F /  16.7 °C 30in /  1014.3hPa SO 4.7mph /  7.6km/h 8.1mph /  13km/h 74% 0in /  0.0mm
09:49 71.1 °F /  21.7 °C 62.2 °F /  16.8 °C 30in /  1014.3hPa SSO 4.6mph /  7.4km/h 6.9mph /  11.1km/h 73.7% 0in /  0.0mm
09:54 71.1 °F /  21.7 °C 62.2 °F /  16.8 °C 30in /  1014.4hPa SO 4.3mph /  6.9km/h 6.2mph /  10km/h 73.7% 0in /  0.0mm
09:59 71.2 °F /  21.8 °C 62.2 °F /  16.8 °C 30in /  1014.4hPa SSO 4mph /  6.5km/h 6.2mph /  10km/h 73% 0in /  0.0mm
10:04 71.6 °F /  22 °C 62.4 °F /  16.9 °C 30in /  1014.4hPa SO 3.6mph /  5.8km/h 6.2mph /  10km/h 72.7% 0in /  0.0mm
10:09 72 °F /  22.2 °C 62.2 °F /  16.8 °C 30in /  1014.5hPa SO 3.7mph /  6km/h 7.6mph /  12.2km/h 71.6% 0in /  0.0mm
10:14 72 °F /  22.2 °C 62.2 °F /  16.8 °C 30in /  1014.5hPa SSO 4mph /  6.4km/h 8.1mph /  13km/h 71.4% 0in /  0.0mm
10:19 72.1 °F /  22.3 °C 62.2 °F /  16.8 °C 30in /  1014.5hPa SO 4.1mph /  6.6km/h 6.9mph /  11.1km/h 71% 0in /  0.0mm
10:24 72.5 °F /  22.5 °C 62.4 °F /  16.9 °C 30in /  1014.6hPa SSO 4.3mph /  6.9km/h 8.5mph /  13.7km/h 70.4% 0in /  0.0mm
10:29 72.9 °F /  22.7 °C 62.4 °F /  16.9 °C 30in /  1014.6hPa SO 4.5mph /  7.3km/h 8.1mph /  13km/h 70% 0in /  0.0mm
10:34 73 °F /  22.8 °C 62.6 °F /  17 °C 30in /  1014.6hPa SSO 5.2mph /  8.4km/h 9.7mph /  15.6km/h 69.8% 0in /  0.0mm
10:39 73.2 °F /  22.9 °C 62.4 °F /  16.9 °C 30in /  1014.7hPa SSO 5.2mph /  8.4km/h 9.2mph /  14.8km/h 69% 0in /  0.0mm
10:44 73.4 °F /  23 °C 62.4 °F /  16.9 °C 30in /  1014.7hPa SSO 5.2mph /  8.4km/h 9.2mph /  14.8km/h 68.5% 0in /  0.0mm
10:49 73.8 °F /  23.2 °C 62.4 °F /  16.9 °C 30in /  1014.7hPa SSO 5.3mph /  8.5km/h 10.4mph /  16.7km/h 67.7% 0in /  0.0mm
10:54 74.1 °F /  23.4 °C 62.4 °F /  16.9 °C 30in /  1014.8hPa SO 5.4mph /  8.7km/h 9.2mph /  14.8km/h 67% 0in /  0.0mm
10:59 74.3 °F /  23.5 °C 62.4 °F /  16.9 °C 30in /  1014.8hPa SO 5.2mph /  8.3km/h 8.1mph /  13km/h 66.5% 0in /  0.0mm
11:04 74.8 °F /  23.8 °C 62.4 °F /  16.9 °C 30in /  1014.8hPa SSO 4.7mph /  7.6km/h 8.1mph /  13km/h 65.7% 0in /  0.0mm
11:09 75.2 °F /  24 °C 62.4 °F /  16.9 °C 30in /  1014.8hPa SO 4.6mph /  7.4km/h 8.7mph /  14km/h 64.5% 0in /  0.0mm
11:14 75.6 °F /  24.2 °C 62.1 °F /  16.7 °C 30in /  1014.7hPa SO 4.3mph /  6.9km/h 9.7mph /  15.6km/h 63% 0in /  0.0mm
11:19 75.7 °F /  24.3 °C 61.7 °F /  16.5 °C 30in /  1014.7hPa OSO 4.6mph /  7.4km/h 8.5mph /  13.7km/h 61.9% 0in /  0.0mm
11:24 76.1 °F /  24.5 °C 61.5 °F /  16.4 °C 30in /  1014.7hPa SO 5.4mph /  8.7km/h 8.1mph /  13km/h 61% 0in /  0.0mm
11:29 76.5 °F /  24.7 °C 61.3 °F /  16.3 °C 30in /  1014.6hPa OSO 5.1mph /  8.2km/h 7.4mph /  11.9km/h 59.8% 0in /  0.0mm
11:34 76.5 °F /  24.7 °C 61.5 °F /  16.4 °C 30in /  1014.6hPa Sur 4.3mph /  6.9km/h 8.5mph /  13.7km/h 59.9% 0in /  0.0mm
11:39 76.8 °F /  24.9 °C 61.3 °F /  16.3 °C 30in /  1014.7hPa Sur 4.6mph /  7.4km/h 8.5mph /  13.7km/h 58.8% 0in /  0.0mm
11:44 77.2 °F /  25.1 °C 61.7 °F /  16.5 °C 30in /  1014.7hPa Sur 5.2mph /  8.4km/h 9.7mph /  15.6km/h 59% 0in /  0.0mm
11:49 77.4 °F /  25.2 °C 61.5 °F /  16.4 °C 30in /  1014.7hPa SSO 5.4mph /  8.7km/h 10.7mph /  17.2km/h 58.5% 0in /  0.0mm
11:54 77.5 °F /  25.3 °C 61.5 °F /  16.4 °C 30in /  1014.7hPa Sur 5.9mph /  9.5km/h 9.7mph /  15.6km/h 57.7% 0in /  0.0mm
11:59 77.7 °F /  25.4 °C 61.2 °F /  16.2 °C 30in /  1014.6hPa Sur 5.9mph /  9.5km/h 9.7mph /  15.6km/h 56.6% 0in /  0.0mm
12:04 77.9 °F /  25.5 °C 61.2 °F /  16.2 °C 30in /  1014.6hPa Sur 5.9mph /  9.5km/h 8.5mph /  13.7km/h 56.4% 0in /  0.0mm
12:09 78.1 °F /  25.6 °C 61.2 °F /  16.2 °C 30in /  1014.6hPa Sur 5.7mph /  9.2km/h 8.1mph /  13km/h 55.9% 0in /  0.0mm
12:14 78.3 °F /  25.7 °C 60.8 °F /  16 °C 30in /  1014.5hPa SSO 5.2mph /  8.4km/h 8.1mph /  13km/h 55.1% 0in /  0.0mm
12:19 78.4 °F /  25.8 °C 60.6 °F /  15.9 °C 30in /  1014.5hPa SSO 5mph /  8.1km/h 7.4mph /  11.9km/h 54.5% 0in /  0.0mm
12:24 79 °F /  26.1 °C 60.8 °F /  16 °C 30in /  1014.5hPa Oeste 4.7mph /  7.6km/h 5.9mph /  9.5km/h 54.1% 0in /  0.0mm
12:29 79.3 °F /  26.3 °C 60.8 °F /  16 °C 30in /  1014.4hPa SSO 4.1mph /  6.6km/h 4.6mph /  7.4km/h 53.2% 0in /  0.0mm
12:34 79.9 °F /  26.6 °C 61.2 °F /  16.2 °C 30in /  1014.4hPa ENE 2.9mph /  4.7km/h 5.2mph /  8.4km/h 52.9% 0in /  0.0mm
12:39 80.4 °F /  26.9 °C 60.8 °F /  16 °C 30in /  1014.4hPa ENE 2.7mph /  4.4km/h 5.2mph /  8.4km/h 51.5% 0in /  0.0mm
12:44 81 °F /  27.2 °C 61.2 °F /  16.2 °C 30in /  1014.3hPa ENE 2.4mph /  3.9km/h 4mph /  6.4km/h 51% 0in /  0.0mm
12:49 81.7 °F /  27.6 °C 61 °F /  16.1 °C 30in /  1014.3hPa ONO 2.4mph /  3.9km/h 6.9mph /  11.1km/h 49.6% 0in /  0.0mm
12:54 81.5 °F /  27.5 °C 60.4 °F /  15.8 °C 30in /  1014.3hPa Oeste 2.4mph /  3.9km/h 5.2mph /  8.4km/h 49% 0in /  0.0mm
12:59 81.3 °F /  27.4 °C 60.4 °F /  15.8 °C 30in /  1014.2hPa SE 2.5mph /  4.1km/h 7.6mph /  12.2km/h 49.3% 0in /  0.0mm
13:04 81.1 °F /  27.3 °C 60.4 °F /  15.8 °C 30in /  1014.2hPa Sur 2.9mph /  4.7km/h 8.1mph /  13km/h 49.3% 0in /  0.0mm
13:09 81.1 °F /  27.3 °C 60.8 °F /  16 °C 30in /  1014.2hPa ESE 3.2mph /  5.2km/h 6.9mph /  11.1km/h 50.1% 0in /  0.0mm
13:14 81.7 °F /  27.6 °C 61 °F /  16.1 °C 29.9in /  1014.1hPa NE 4mph /  6.4km/h 7.4mph /  11.9km/h 49.6% 0in /  0.0mm
13:19 81.7 °F /  27.6 °C 60.4 °F /  15.8 °C 29.9in /  1014.1hPa ENE 4.2mph /  6.8km/h 7.4mph /  11.9km/h 48.6% 0in /  0.0mm
13:24 81.7 °F /  27.6 °C 60.6 °F /  15.9 °C 29.9in /  1014.1hPa NE 4.7mph /  7.6km/h 9.2mph /  14.8km/h 48.8% 0in /  0.0mm
13:29 81.7 °F /  27.6 °C 60.6 °F /  15.9 °C 29.9in /  1014.1hPa NNE 4.6mph /  7.4km/h 12.7mph /  20.4km/h 48.8% 0in /  0.0mm
13:34 81.5 °F /  27.5 °C 60.6 °F /  15.9 °C 29.9in /  1014.1hPa NE 4.3mph /  6.9km/h 11.5mph /  18.5km/h 49.1% 0in /  0.0mm
13:39 81.7 °F /  27.6 °C 60.4 °F /  15.8 °C 29.9in /  1014.1hPa North 4.4mph /  7.1km/h 6.9mph /  11.1km/h 48.7% 0in /  0.0mm
13:44 81.7 °F /  27.6 °C 60.3 °F /  15.7 °C 29.9in /  1014.1hPa NE 4.7mph /  7.6km/h 7.6mph /  12.2km/h 48.4% 0in /  0.0mm
13:49 81.7 °F /  27.6 °C 61 °F /  16.1 °C 29.9in /  1014.1hPa NNE 4.7mph /  7.6km/h 8.1mph /  13km/h 49.4% 0in /  0.0mm
13:54 82 °F /  27.8 °C 61 °F /  16.1 °C 29.9in /  1014.1hPa North 4.7mph /  7.6km/h 8.1mph /  13km/h 49% 0in /  0.0mm
13:59 82.2 °F /  27.9 °C 61.2 °F /  16.2 °C 29.9in /  1013.8hPa NNE 4.8mph /  7.8km/h 12.7mph /  20.4km/h 49% 0in /  0.0mm
14:04 82.2 °F /  27.9 °C 61.5 °F /  16.4 °C 29.9in /  1013.8hPa NE 5.2mph /  8.4km/h 12.7mph /  20.4km/h 49.7% 0in /  0.0mm
14:09 82.2 °F /  27.9 °C 62.2 °F /  16.8 °C 29.9in /  1013.8hPa ENE 5.5mph /  8.8km/h 13.8mph /  22.2km/h 51% 0in /  0.0mm
14:14 82 °F /  27.8 °C 62.8 °F /  17.1 °C 29.9in /  1013.6hPa ENE 6.2mph /  10km/h 11.5mph /  18.5km/h 52% 0in /  0.0mm
14:19 81.9 °F /  27.7 °C 62.4 °F /  16.9 °C 29.9in /  1013.6hPa NE 6.3mph /  10.1km/h 12.5mph /  20.1km/h 51.7% 0in /  0.0mm
14:24 82 °F /  27.8 °C 62.6 °F /  17 °C 29.9in /  1013.6hPa NE 6.4mph /  10.3km/h 12.7mph /  20.4km/h 52.1% 0in /  0.0mm
14:29 82.2 °F /  27.9 °C 63.5 °F /  17.5 °C 29.9in /  1013.4hPa NE 6.3mph /  10.2km/h 11.5mph /  18.5km/h 53.1% 0in /  0.0mm
14:34 82 °F /  27.8 °C 63.9 °F /  17.7 °C 29.9in /  1013.4hPa NE 6.2mph /  10km/h 12.7mph /  20.4km/h 54% 0in /  0.0mm
14:39 82.2 °F /  27.9 °C 63.7 °F /  17.6 °C 29.9in /  1013.4hPa NE 6.2mph /  10km/h 10.4mph /  16.7km/h 53.6% 0in /  0.0mm
14:44 82.2 °F /  27.9 °C 63.9 °F /  17.7 °C 29.9in /  1013.0hPa NNE 6.2mph /  10km/h 10.4mph /  16.7km/h 53.9% 0in /  0.0mm
14:49 82 °F /  27.8 °C 63.9 °F /  17.7 °C 29.9in /  1013.0hPa NNE 6.4mph /  10.3km/h 13.8mph /  22.2km/h 54.1% 0in /  0.0mm
14:54 82 °F /  27.8 °C 64.4 °F /  18 °C 29.9in /  1013.0hPa NE 6.9mph /  11.1km/h 12.7mph /  20.4km/h 55.1% 0in /  0.0mm
14:55 82 °F /  27.8 °C 64.9 °F /  18.3 °C 29.9in /  1012.9hPa NE 6.9mph /  11.1km/h 10.4mph /  16.7km/h 56% 0in /  0.0mm
15:04 82.6 °F /  28.1 °C 64.6 °F /  18.1 °C 29.9in /  1012.9hPa NE 6.9mph /  11.1km/h 18.4mph /  29.6km/h 54.7% 0in /  0.0mm
15:09 82.6 °F /  28.1 °C 64.2 °F /  17.9 °C 29.9in /  1012.9hPa NE 7.5mph /  12km/h 17.3mph /  27.8km/h 54% 0in /  0.0mm
15:14 82.4 °F /  28 °C 64.2 °F /  17.9 °C 29.9in /  1012.7hPa ENE 8.7mph /  14km/h 15mph /  24.1km/h 54% 0in /  0.0mm
15:19 82.2 °F /  27.9 °C 63.9 °F /  17.7 °C 29.9in /  1012.7hPa ENE 8.5mph /  13.7km/h 18.4mph /  29.6km/h 54% 0in /  0.0mm
15:24 82.2 °F /  27.9 °C 63.9 °F /  17.7 °C 29.9in /  1012.8hPa ENE 8.1mph /  13km/h 13.8mph /  22.2km/h 53.8% 0in /  0.0mm
15:29 82.4 °F /  28 °C 63.9 °F /  17.7 °C 29.9in /  1012.8hPa NE 8.1mph /  13km/h 18.5mph /  29.8km/h 53.6% 0in /  0.0mm
15:34 82.4 °F /  28 °C 63.5 °F /  17.5 °C 29.9in /  1012.8hPa NE 8.1mph /  13km/h 16.3mph /  26.2km/h 53% 0in /  0.0mm
15:39 82 °F /  27.8 °C 63.7 °F /  17.6 °C 29.9in /  1012.8hPa NE 8.3mph /  13.3km/h 15mph /  24.1km/h 53.7% 0in /  0.0mm
15:44 82.4 °F /  28 °C 63.1 °F /  17.3 °C 29.9in /  1012.6hPa NE 8.7mph /  14km/h 12.7mph /  20.4km/h 52.5% 0in /  0.0mm
15:49 82.6 °F /  28.1 °C 63.1 °F /  17.3 °C 29.9in /  1012.6hPa NE 8.3mph /  13.4km/h 13.8mph /  22.2km/h 52% 0in /  0.0mm
15:54 82.8 °F /  28.2 °C 63.3 °F /  17.4 °C 29.9in /  1012.6hPa ENE 7.4mph /  11.9km/h 17.5mph /  28.2km/h 52.1% 0in /  0.0mm
15:59 82.9 °F /  28.3 °C 63.1 °F /  17.3 °C 29.9in /  1012.4hPa ENE 7.6mph /  12.3km/h 18.4mph /  29.6km/h 51.2% 0in /  0.0mm
16:04 82.9 °F /  28.3 °C 63 °F /  17.2 °C 29.9in /  1012.4hPa ENE 8.1mph /  13km/h 20.1mph /  32.3km/h 50.9% 0in /  0.0mm
16:09 82.9 °F /  28.3 °C 61.9 °F /  16.6 °C 29.9in /  1012.4hPa ENE 8.4mph /  13.6km/h 20.7mph /  33.3km/h 49.2% 0in /  0.0mm
16:14 82.9 °F /  28.3 °C 61.9 °F /  16.6 °C 29.9in /  1012.3hPa ENE 9.2mph /  14.8km/h 20.7mph /  33.3km/h 49% 0in /  0.0mm
16:19 83.1 °F /  28.4 °C 61.7 °F /  16.5 °C 29.9in /  1012.3hPa ENE 9.2mph /  14.8km/h 19.6mph /  31.5km/h 48.6% 0in /  0.0mm
16:24 82.9 °F /  28.3 °C 61.9 °F /  16.6 °C 29.9in /  1012.3hPa ENE 9.2mph /  14.8km/h 20.7mph /  33.3km/h 48.9% 0in /  0.0mm
16:29 82.9 °F /  28.3 °C 61.7 °F /  16.5 °C 29.9in /  1012.3hPa NE 9.9mph /  15.9km/h 21.3mph /  34.3km/h 48.8% 0in /  0.0mm
16:34 82.9 °F /  28.3 °C 61.3 °F /  16.3 °C 29.9in /  1012.3hPa NE 11.4mph /  18.3km/h 21.9mph /  35.2km/h 48.3% 0in /  0.0mm
16:39 82.9 °F /  28.3 °C 61.7 °F /  16.5 °C 29.9in /  1012.3hPa ENE 11.7mph /  18.9km/h 26.5mph /  42.6km/h 48.6% 0in /  0.0mm
16:44 82.9 °F /  28.3 °C 62.1 °F /  16.7 °C 29.9in /  1012.3hPa ENE 12.5mph /  20.1km/h 21.9mph /  35.2km/h 49.2% 0in /  0.0mm
16:49 82.9 °F /  28.3 °C 62.8 °F /  17.1 °C 29.9in /  1012.3hPa ENE 12.2mph /  19.6km/h 21.3mph /  34.3km/h 50.7% 0in /  0.0mm
16:54 82.6 °F /  28.1 °C 63 °F /  17.2 °C 29.9in /  1012.3hPa NE 11.4mph /  18.3km/h 25.3mph /  40.7km/h 51.5% 0in /  0.0mm
16:59 82.6 °F /  28.1 °C 63.5 °F /  17.5 °C 29.9in /  1012.2hPa ENE 11.4mph /  18.3km/h 21.3mph /  34.3km/h 52.5% 0in /  0.0mm
17:04 82.6 °F /  28.1 °C 63.7 °F /  17.6 °C 29.9in /  1012.2hPa ENE 11.4mph /  18.3km/h 21.3mph /  34.3km/h 53% 0in /  0.0mm
17:09 82.2 °F /  27.9 °C 63.5 °F /  17.5 °C 29.9in /  1012.2hPa NE 11.7mph /  18.9km/h 21.3mph /  34.3km/h 53.1% 0in /  0.0mm
17:14 82 °F /  27.8 °C 63.9 °F /  17.7 °C 29.9in /  1012.2hPa ENE 12.5mph /  20.1km/h 21.9mph /  35.2km/h 53.9% 0in /  0.0mm
17:19 82 °F /  27.8 °C 64 °F /  17.8 °C 29.9in /  1012.2hPa ENE 12.1mph /  19.5km/h 20.7mph /  33.3km/h 54.3% 0in /  0.0mm
17:24 82.2 °F /  27.9 °C 63.7 °F /  17.6 °C 29.9in /  1012.3hPa NE 11.2mph /  18km/h 18.4mph /  29.6km/h 53.6% 0in /  0.0mm
17:29 82.6 °F /  28.1 °C 63.3 °F /  17.4 °C 29.9in /  1012.3hPa NE 11.6mph /  18.7km/h 24.2mph /  38.9km/h 52.5% 0in /  0.0mm
17:34 82.2 °F /  27.9 °C 62.8 °F /  17.1 °C 29.9in /  1012.3hPa NE 12.5mph /  20.1km/h 21.9mph /  35.2km/h 51.9% 0in /  0.0mm
17:39 82.4 °F /  28 °C 63 °F /  17.2 °C 29.9in /  1012.3hPa NE 12.8mph /  20.6km/h 23.5mph /  37.8km/h 52% 0in /  0.0mm
17:44 82.6 °F /  28.1 °C 63.1 °F /  17.3 °C 29.9in /  1012.1hPa NE 13.5mph /  21.7km/h 21.3mph /  34.3km/h 52% 0in /  0.0mm
17:49 82.6 °F /  28.1 °C 63.3 °F /  17.4 °C 29.9in /  1012.1hPa NE 13.5mph /  21.8km/h 25.3mph /  40.7km/h 52.1% 0in /  0.0mm
17:54 82.2 °F /  27.9 °C 63.9 °F /  17.7 °C 29.9in /  1012.1hPa NE 13.7mph /  22km/h 25.3mph /  40.7km/h 53.8% 0in /  0.0mm
17:59 82 °F /  27.8 °C 64.4 °F /  18 °C 29.9in /  1012.1hPa NE 14mph /  22.5km/h 26.1mph /  42km/h 55% 0in /  0.0mm
18:04 81.9 °F /  27.7 °C 64.6 °F /  18.1 °C 29.9in /  1012.1hPa NE 14.5mph /  23.3km/h 26.5mph /  42.6km/h 56.1% 0in /  0.0mm
18:09 81.7 °F /  27.6 °C 64.9 °F /  18.3 °C 29.9in /  1012.2hPa NE 14.7mph /  23.7km/h 24.6mph /  39.6km/h 57% 0in /  0.0mm
18:14 81.1 °F /  27.3 °C 64.9 °F /  18.3 °C 29.9in /  1012.2hPa NE 15.2mph /  24.5km/h 24.2mph /  38.9km/h 57.7% 0in /  0.0mm
18:19 81 °F /  27.2 °C 65.1 °F /  18.4 °C 29.9in /  1012.2hPa NE 15mph /  24.2km/h 26.8mph /  43.1km/h 58.7% 0in /  0.0mm
18:24 80.4 °F /  26.9 °C 65.1 °F /  18.4 °C 29.9in /  1012.3hPa NE 14.7mph /  23.7km/h 23.5mph /  37.8km/h 59.5% 0in /  0.0mm
18:29 80.2 °F /  26.8 °C 65.1 °F /  18.4 °C 29.9in /  1012.3hPa NE 14.2mph /  22.8km/h 23mph /  37km/h 60% 0in /  0.0mm
18:34 80.1 °F /  26.7 °C 65.3 °F /  18.5 °C 29.9in /  1012.3hPa NE 13mph /  20.9km/h 26.5mph /  42.6km/h 60.7% 0in /  0.0mm
18:39 80.1 °F /  26.7 °C 65.7 °F /  18.7 °C 29.9in /  1012.3hPa NE 13.2mph /  21.2km/h 18.4mph /  29.6km/h 61.4% 0in /  0.0mm
18:44 80.1 °F /  26.7 °C 65.8 °F /  18.8 °C 29.9in /  1012.2hPa NE 13.5mph /  21.7km/h 16.1mph /  25.9km/h 62% 0in /  0.0mm
18:49 79.9 °F /  26.6 °C 65.7 °F /  18.7 °C 29.9in /  1012.2hPa NE 12.7mph /  20.4km/h 20.8mph /  33.5km/h 62% 0in /  0.0mm
18:54 79.9 °F /  26.6 °C 65.7 °F /  18.7 °C 29.9in /  1012.2hPa NE 10.7mph /  17.2km/h 17.3mph /  27.8km/h 62% 0in /  0.0mm
18:59 79.7 °F /  26.5 °C 65.8 °F /  18.8 °C 29.9in /  1012.2hPa NE 10.2mph /  16.4km/h 16.1mph /  25.9km/h 62.5% 0in /  0.0mm
19:04 79.5 °F /  26.4 °C 65.8 °F /  18.8 °C 29.9in /  1012.2hPa NE 9.2mph /  14.8km/h 22.3mph /  35.9km/h 63% 0in /  0.0mm
19:09 79.3 °F /  26.3 °C 65.7 °F /  18.7 °C 29.9in /  1012.3hPa NE 9.4mph /  15.2km/h 21.9mph /  35.2km/h 63% 0in /  0.0mm
19:14 79.3 °F /  26.3 °C 66 °F /  18.9 °C 29.9in /  1012.3hPa NE 10mph /  16.1km/h 17.3mph /  27.8km/h 63.7% 0in /  0.0mm
19:19 79.2 °F /  26.2 °C 66 °F /  18.9 °C 29.9in /  1012.3hPa NE 10.1mph /  16.2km/h 20.7mph /  33.3km/h 64% 0in /  0.0mm
19:24 79.2 °F /  26.2 °C 66.2 °F /  19 °C 29.9in /  1012.3hPa NE 10.2mph /  16.4km/h 19.6mph /  31.5km/h 64.7% 0in /  0.0mm
19:29 79 °F /  26.1 °C 66 °F /  18.9 °C 29.9in /  1012.3hPa NE 10.6mph /  17km/h 15mph /  24.1km/h 65% 0in /  0.0mm
19:34 78.8 °F /  26 °C 66 °F /  18.9 °C 29.9in /  1012.3hPa NNE 11.4mph /  18.3km/h 12.7mph /  20.4km/h 65% 0in /  0.0mm
19:39 78.8 °F /  26 °C 66 °F /  18.9 °C 29.9in /  1012.5hPa NNE 10.3mph /  16.5km/h 17.5mph /  28.2km/h 65% 0in /  0.0mm
19:44 78.6 °F /  25.9 °C 66.4 °F /  19.1 °C 29.9in /  1012.5hPa NNE 7.6mph /  12.2km/h 17.5mph /  28.2km/h 66% 0in /  0.0mm
19:49 78.4 °F /  25.8 °C 66.6 °F /  19.2 °C 29.9in /  1012.5hPa NNE 8.6mph /  13.8km/h 18.4mph /  29.6km/h 67% 0in /  0.0mm
19:54 78.3 °F /  25.7 °C 66.9 °F /  19.4 °C 29.9in /  1012.5hPa NNE 10.7mph /  17.2km/h 17.3mph /  27.8km/h 68.4% 0in /  0.0mm
19:59 78.1 °F /  25.6 °C 67.3 °F /  19.6 °C 29.9in /  1012.4hPa NE 10.7mph /  17.2km/h 16.1mph /  25.9km/h 69.5% 0in /  0.0mm
20:04 77.7 °F /  25.4 °C 67.3 °F /  19.6 °C 29.9in /  1012.4hPa NNE 10.7mph /  17.2km/h 13.8mph /  22.2km/h 70.2% 0in /  0.0mm
20:09 77.7 °F /  25.4 °C 67.6 °F /  19.8 °C 29.9in /  1012.5hPa NNE 10mph /  16.1km/h 13.8mph /  22.2km/h 71% 0in /  0.0mm
20:14 77.5 °F /  25.3 °C 67.5 °F /  19.7 °C 29.9in /  1012.5hPa NNE 8.5mph /  13.7km/h 12.7mph /  20.4km/h 71% 0in /  0.0mm
20:19 77.5 °F /  25.3 °C 67.5 °F /  19.7 °C 29.9in /  1012.5hPa NNE 8.2mph /  13.2km/h 12.7mph /  20.4km/h 71% 0in /  0.0mm
20:24 77.5 °F /  25.3 °C 67.5 °F /  19.7 °C 29.9in /  1012.5hPa NNE 7.4mph /  11.9km/h 13mph /  20.9km/h 71% 0in /  0.0mm
20:29 77.5 °F /  25.3 °C 67.5 °F /  19.7 °C 29.9in /  1012.4hPa NE 7.4mph /  11.9km/h 11.8mph /  19km/h 70.8% 0in /  0.0mm
20:34 77.7 °F /  25.4 °C 67.1 °F /  19.5 °C 29.9in /  1012.4hPa NE 7.4mph /  11.9km/h 13.8mph /  22.2km/h 70% 0in /  0.0mm
20:39 77.7 °F /  25.4 °C 67.1 °F /  19.5 °C 29.9in /  1012.5hPa NE 7.5mph /  12km/h 11.5mph /  18.5km/h 70% 0in /  0.0mm
20:44 77.7 °F /  25.4 °C 67.1 °F /  19.5 °C 29.9in /  1012.5hPa NE 7.6mph /  12.2km/h 11.8mph /  19km/h 70% 0in /  0.0mm
20:49 77.5 °F /  25.3 °C 67.1 °F /  19.5 °C 29.9in /  1012.5hPa NE 7.4mph /  11.9km/h 11.8mph /  19km/h 70% 0in /  0.0mm
20:54 77.5 °F /  25.3 °C 66.9 °F /  19.4 °C 29.9in /  1012.5hPa NNE 6.9mph /  11.1km/h 10.4mph /  16.7km/h 70% 0in /  0.0mm
20:59 77.5 °F /  25.3 °C 66.9 °F /  19.4 °C 29.9in /  1012.5hPa NE 6.7mph /  10.8km/h 10.4mph /  16.7km/h 70% 0in /  0.0mm
21:04 77.5 °F /  25.3 °C 66.9 °F /  19.4 °C 29.9in /  1012.5hPa NE 6.4mph /  10.3km/h 9.2mph /  14.8km/h 70% 0in /  0.0mm
21:09 77.5 °F /  25.3 °C 66.9 °F /  19.4 °C 29.9in /  1012.8hPa NE 6mph /  9.7km/h 8.5mph /  13.7km/h 70% 0in /  0.0mm
21:14 77.5 °F /  25.3 °C 66.9 °F /  19.4 °C 29.9in /  1012.8hPa North 5.2mph /  8.4km/h 6.9mph /  11.1km/h 70% 0in /  0.0mm
21:19 77.5 °F /  25.3 °C 66.9 °F /  19.4 °C 29.9in /  1012.8hPa NNO 4.7mph /  7.6km/h 5.8mph /  9.3km/h 70% 0in /  0.0mm
21:24 77.5 °F /  25.3 °C 66.9 °F /  19.4 °C 29.9in /  1013.0hPa NNE 3.6mph /  5.8km/h 6.2mph /  10km/h 70% 0in /  0.0mm
21:29 77.4 °F /  25.2 °C 66.6 °F /  19.2 °C 29.9in /  1013.0hPa North 3.4mph /  5.5km/h 4.6mph /  7.4km/h 69.4% 0in /  0.0mm
21:34 77.5 °F /  25.3 °C 66.6 °F /  19.2 °C 29.9in /  1013.0hPa NO 3.1mph /  5km/h 4.7mph /  7.6km/h 69% 0in /  0.0mm
21:39 77.5 °F /  25.3 °C 66.6 °F /  19.2 °C 29.9in /  1013.1hPa NNE 3mph /  4.9km/h 5.2mph /  8.4km/h 69% 0in /  0.0mm
21:44 77.5 °F /  25.3 °C 65.8 °F /  18.8 °C 29.9in /  1013.1hPa NO 2.9mph /  4.7km/h 5.9mph /  9.5km/h 67.5% 0in /  0.0mm
21:49 77.4 °F /  25.2 °C 65.5 °F /  18.6 °C 29.9in /  1013.1hPa NNO 3mph /  4.8km/h 8.1mph /  13km/h 67% 0in /  0.0mm
21:54 77.4 °F /  25.2 °C 65.3 °F /  18.5 °C 29.9in /  1013.5hPa NNO 3.1mph /  5km/h 7.4mph /  11.9km/h 66.4% 0in /  0.0mm
21:59 77.2 °F /  25.1 °C 64.9 °F /  18.3 °C 29.9in /  1013.5hPa North 3.5mph /  5.7km/h 8.1mph /  13km/h 66% 0in /  0.0mm
22:04 77.2 °F /  25.1 °C 64.9 °F /  18.3 °C 29.9in /  1013.5hPa North 4.3mph /  6.9km/h 8.1mph /  13km/h 66% 0in /  0.0mm
22:09 76.8 °F /  24.9 °C 64.8 °F /  18.2 °C 29.9in /  1013.6hPa NNO 4.1mph /  6.6km/h 6.9mph /  11.1km/h 66% 0in /  0.0mm
22:14 76.8 °F /  24.9 °C 64.6 °F /  18.1 °C 29.9in /  1013.6hPa NNO 3.6mph /  5.8km/h 5.8mph /  9.3km/h 66% 0in /  0.0mm
22:19 76.8 °F /  24.9 °C 64.6 °F /  18.1 °C 29.9in /  1013.6hPa NO 3.4mph /  5.4km/h 6.2mph /  10km/h 66% 0in /  0.0mm
22:24 76.6 °F /  24.8 °C 64.4 °F /  18 °C 29.9in /  1013.9hPa NNO 2.9mph /  4.7km/h 5.8mph /  9.3km/h 66.1% 0in /  0.0mm
22:29 76.6 °F /  24.8 °C 64.4 °F /  18 °C 29.9in /  1013.9hPa North 3.1mph /  5km/h 5.8mph /  9.3km/h 66% 0in /  0.0mm
22:34 76.6 °F /  24.8 °C 64.8 °F /  18.2 °C 29.9in /  1013.9hPa North 3.6mph /  5.8km/h 7.4mph /  11.9km/h 66.6% 0in /  0.0mm
22:39 76.6 °F /  24.8 °C 64.9 °F /  18.3 °C 29.9in /  1013.9hPa North 3.4mph /  5.5km/h 6.9mph /  11.1km/h 67% 0in /  0.0mm
22:44 76.6 °F /  24.8 °C 64.8 °F /  18.2 °C 29.9in /  1013.7hPa North 3.1mph /  5km/h 4.6mph /  7.4km/h 67% 0in /  0.0mm
22:49 76.5 °F /  24.7 °C 64.8 °F /  18.2 °C 29.9in /  1013.7hPa North 2.9mph /  4.7km/h 5.8mph /  9.3km/h 67% 0in /  0.0mm
22:54 76.5 °F /  24.7 °C 64.8 °F /  18.2 °C 29.9in /  1013.8hPa NNO 2.4mph /  3.9km/h 3.5mph /  5.6km/h 67% 0in /  0.0mm
22:59 76.5 °F /  24.7 °C 64.8 °F /  18.2 °C 29.9in /  1013.8hPa NNO 2.2mph /  3.5km/h 3.5mph /  5.6km/h 67% 0in /  0.0mm
23:04 76.5 °F /  24.7 °C 64.8 °F /  18.2 °C 29.9in /  1013.8hPa NO 1.8mph /  2.9km/h 4.6mph /  7.4km/h 67% 0in /  0.0mm
23:09 76.5 °F /  24.7 °C 64.8 °F /  18.2 °C 29.9in /  1013.9hPa NO 1.8mph /  2.9km/h 2.4mph /  3.9km/h 67% 0in /  0.0mm
23:14 76.5 °F /  24.7 °C 64.8 °F /  18.2 °C 29.9in /  1013.9hPa NO 1.8mph /  2.9km/h 4.6mph /  7.4km/h 67% 0in /  0.0mm
23:15 76.5 °F /  24.7 °C 64.8 °F /  18.2 °C 29.9in /  1013.9hPa NO 1.8mph /  2.9km/h 3.5mph /  5.6km/h 67% 0in /  0.0mm
Murcia-Puente Tocinos, España
Compliments of Weather Underground - 2.75 mb

La estación de MeteoMurcia.com, publica sus datos en los siguientes proyectos:

Weather Underground PWS IMURCIAP2 Meteoclimatic www.awekas.at

W3Counter
Web Analytics